Fabius, NY

11:08 AM EDT on September 02, 2015 (GMT -0400)
Barbland Farms | | Change Station
CLOSE
Current Station
Personal Weather Station
Location: Fabius, NY
Elevation: 1280 ft
Nearby Weather Stations

Elev 1280 ft 42.84 °N, 75.97 °W | Updated 8 minutes ago

Partly Cloudy
Partly Cloudy
73.3 °F
Feels Like 71 °F
N
0.0
Wind Variable Wind from WNW
Gusts 4.0 mph

Today
High -- | Low -- °F
--% Chance of Precip.
Yesterday
High -- | Low -- °F
Precip. -- in
6:29 AM 7:37 PM
Waning Gibbous, 79% visible
Pressure 30.01 in
Visibility 6.0 miles
Clouds Few 4000 ft
Heat Index 71 °F
Dew Point 70 °F
Humidity 89%
Rainfall 0.01 in
Snow Depth Not available.
UV 6 out of 12
Pollen 9.40 out of 12
Air Quality Not available.
Flu Activity Not available.
METAR KSYR 021454Z 28006KT 6SM HZ FEW040 26/20 A3003 RMK AO2 SLP162 T02560200 58006
Pressure 30.01 in
Visibility 6.0 miles
Clouds Few 4000 ft
Heat Index 71 °F
Dew Point 70 °F
Humidity 89%
Rainfall 0.01 in
Snow Depth Not available.
UV 6 out of 12
Pollen 9.40 out of 12
Air Quality Not available.
Flu Activity Not available.
METAR KSYR 021454Z 28006KT 6SM HZ FEW040 26/20 A3003 RMK AO2 SLP162 T02560200 58006

10-Day Weather Forecast

×

Almanac

Astronomy

Sep. 02, 2015 Rise Set
Actual Time
Civil Twilight
Nautical Twilight
Astronomical Twilight
Moon
Length of Visible Light
Length of Day
Tomorrow will be .
, % of the Moon is Illuminated

Today's Extremes

State Highs State Lows

Community

WunderPhotos

Upload Photos

1,851,769 photos uploaded!

WunderBlogs® & News

Nearby

Air Quality

  Air Quality AQ Index Pollutant
Not available.

Snow Depth

Station Depth Elevation

Earthquake Activity

City Distance Mag. Time & Date
Minimum magnitude displayed is 2.5.

Coastal Water Temperatures

Place Temperature

Stations

Nearby Weather Stations

Station Location Temp. Windchill Dew Point Humidity Wind Precip. Elev Updated Type